Time;durP1;ratioP1;P1;durP2;ratioP2;P2;SDS_P1;SDS_P2;PMS_P1;PMS_P2;Temp;Humidity;BMP_temperature;BMP_pressure;BME280_temperature;BME280_humidity;BME280_pressure;Samples;Min_cycle;Max_cycle;Signal;HPM_P1;HPM_P2
2022/01/25 00:08:54;;;;;;;19.70;7.27;;;3.40;1.00;;;;;;4876406;29;20250;-84
2022/01/25 00:25:44;;;;;;;25.77;9.73;;;3.40;1.00;;;;;;4913747;29;20673;-84
2022/01/25 00:28:21;;;;;;;20.17;8.80;;;3.40;1.00;;;;;;4913444;29;20317;-84
2022/01/25 00:31:00;;;;;;;17.10;7.57;;;3.40;1.00;;;;;;4913563;29;20244;-84
2022/01/25 00:33:27;;;;;;;22.20;9.07;;;3.40;1.00;;;;;;4916052;29;20192;-84
2022/01/25 00:35:54;;;;;;;23.20;8.20;;;3.40;1.00;;;;;;4917056;29;20259;-84
2022/01/25 00:38:23;;;;;;;21.83;8.53;;;3.40;1.00;;;;;;4917090;29;20193;-84
2022/01/25 00:40:50;;;;;;;25.80;9.80;;;3.40;1.00;;;;;;4917084;29;20276;-84
2022/01/25 00:43:17;;;;;;;19.43;8.53;;;3.40;1.00;;;;;;4917061;29;20256;-85
2022/01/25 00:45:44;;;;;;;25.43;10.20;;;3.40;1.00;;;;;;4916965;29;20676;-85
2022/01/25 00:48:18;;;;;;;26.23;9.97;;;3.40;1.00;;;;;;4916905;29;20268;-85
2022/01/25 00:50:45;;;;;;;30.53;10.13;;;3.40;1.00;;;;;;4916861;29;20213;-84
2022/01/25 00:56:10;;;;;;;25.80;10.57;;;3.40;1.00;;;;;;4916042;29;20635;-85
2022/01/25 00:58:37;;;;;;;33.47;12.80;;;3.40;1.00;;;;;;4916770;29;20220;-84
2022/01/25 01:01:04;;;;;;;28.03;12.43;;;3.40;1.00;;;;;;4916774;29;20205;-84
2022/01/25 01:03:31;;;;;;;32.00;14.30;;;3.40;1.00;;;;;;4917018;29;20230;-84
2022/01/25 01:05:58;;;;;;;34.40;12.20;;;3.40;1.00;;;;;;4916604;29;20194;-84
2022/01/25 01:08:25;;;;;;;31.67;11.67;;;3.40;1.00;;;;;;4916541;29;20255;-84
2022/01/25 01:10:52;;;;;;;30.47;11.43;;;3.40;1.00;;;;;;4916464;29;20221;-84
2022/01/25 01:13:50;;;;;;;31.73;11.53;;;3.40;1.00;;;;;;4916373;29;20694;-84
2022/01/25 01:16:41;;;;;;;30.87;11.50;;;3.40;1.00;;;;;;4916683;29;20197;-84
2022/01/25 01:30:18;;;;;;;28.93;10.30;;;3.40;1.00;;;;;;4916445;29;20189;-84
2022/01/25 01:33:17;;;;;;;28.87;10.27;;;3.40;1.00;;;;;;4916144;29;20322;-84
2022/01/25 01:36:17;;;;;;;25.33;9.30;;;3.40;1.00;;;;;;4916177;29;20613;-85
2022/01/25 01:41:44;;;;;;;31.03;10.80;;;3.40;1.00;;;;;;4906432;29;20212;-85
2022/01/25 01:44:20;;;;;;;31.73;11.57;;;3.40;1.00;;;;;;4922295;29;20224;-85
2022/01/25 01:47:03;;;;;;;30.20;11.13;;;3.40;1.00;;;;;;4937077;29;20184;-84
2022/01/25 01:49:30;;;;;;;28.77;10.33;;;3.40;1.00;;;;;;4936816;29;20276;-84
2022/01/25 01:51:57;;;;;;;30.23;11.93;;;3.50;1.00;;;;;;4937016;29;20247;-85
2022/01/25 01:54:24;;;;;;;29.07;11.20;;;3.40;1.00;;;;;;4936985;29;20252;-84
2022/01/25 01:56:51;;;;;;;25.67;10.47;;;3.40;1.00;;;;;;4936961;29;20263;-84
2022/01/25 01:59:18;;;;;;;27.67;10.37;;;3.40;1.00;;;;;;4936709;29;20667;-85
2022/01/25 02:01:48;;;;;;;28.10;11.93;;;3.40;1.00;;;;;;4936545;29;20665;-85
2022/01/25 02:04:20;;;;;;;28.63;10.40;;;3.40;1.00;;;;;;4936475;29;20641;-84
2022/01/25 02:06:47;;;;;;;30.70;10.67;;;3.40;1.00;;;;;;4936837;29;20185;-84
2022/01/25 02:09:14;;;;;;;28.10;10.73;;;3.40;1.00;;;;;;4936752;29;20200;-84
2022/01/25 02:11:41;;;;;;;28.23;9.93;;;3.50;1.00;;;;;;4936768;29;20553;-84
2022/01/25 02:14:09;;;;;;;25.57;9.57;;;3.40;1.00;;;;;;4937038;29;20207;-84
2022/01/25 02:16:54;;;;;;;24.23;10.33;;;3.40;1.00;;;;;;4936837;29;20197;-84
2022/01/25 02:22:28;;;;;;;28.03;11.07;;;3.40;1.00;;;;;;4936566;29;20188;-85
2022/01/25 02:24:56;;;;;;;26.03;9.90;;;3.40;1.00;;;;;;4936229;29;20240;-84
2022/01/25 02:27:23;;;;;;;29.13;10.67;;;3.40;1.00;;;;;;4936341;29;20194;-84
2022/01/25 02:29:50;;;;;;;29.20;10.57;;;3.40;1.00;;;;;;4936392;29;20220;-84
2022/01/25 02:32:17;;;;;;;27.77;9.83;;;3.40;1.00;;;;;;4957037;28;20305;-85
2022/01/25 02:34:44;;;;;;;27.67;9.97;;;3.40;1.00;;;;;;4974380;28;20246;-85
2022/01/25 02:37:14;;;;;;;32.23;11.73;;;3.40;1.00;;;;;;4974579;28;20610;-84
2022/01/25 02:39:43;;;;;;;25.43;10.17;;;3.40;1.00;;;;;;4974845;28;20252;-85
2022/01/25 02:42:12;;;;;;;33.83;10.97;;;3.40;1.00;;;;;;4974429;28;20257;-84
2022/01/25 02:44:41;;;;;;;27.27;10.00;;;3.40;1.00;;;;;;4974742;28;20206;-84
2022/01/25 02:49:53;;;;;;;26.83;10.10;;;3.40;1.00;;;;;;4974302;28;20570;-84
2022/01/25 02:52:22;;;;;;;31.03;10.93;;;3.40;1.00;;;;;;4974418;28;20222;-84
2022/01/25 02:54:50;;;;;;;33.03;11.40;;;3.40;1.00;;;;;;4974309;28;20282;-84
2022/01/25 02:57:18;;;;;;;28.57;11.10;;;3.40;1.00;;;;;;4973624;28;20195;-84
2022/01/25 02:59:45;;;;;;;27.47;10.50;;;3.50;1.00;;;;;;4974105;28;20199;-84
2022/01/25 03:02:12;;;;;;;29.87;10.30;;;3.40;1.00;;;;;;4974433;28;20207;-84
2022/01/25 03:04:39;;;;;;;27.90;10.33;;;3.40;1.00;;;;;;4974487;28;20197;-84
2022/01/25 03:07:07;;;;;;;30.40;10.63;;;3.40;1.00;;;;;;4973849;28;20656;-84
2022/01/25 03:09:36;;;;;;;26.10;9.93;;;3.40;1.00;;;;;;4974085;28;20203;-85
2022/01/25 03:12:06;;;;;;;28.37;9.80;;;3.40;1.00;;;;;;4974092;28;20214;-84
2022/01/25 03:14:36;;;;;;;30.00;10.80;;;3.40;1.00;;;;;;4974364;28;20195;-85
2022/01/25 03:17:09;;;;;;;28.50;10.23;;;3.40;1.00;;;;;;4974254;28;20190;-84
2022/01/25 03:19:51;;;;;;;27.60;9.63;;;3.40;1.00;;;;;;4974060;28;20197;-85
2022/01/25 03:22:31;;;;;;;25.67;10.20;;;3.40;1.00;;;;;;4973671;28;20191;-84
2022/01/25 03:25:00;;;;;;;29.40;10.57;;;3.40;1.00;;;;;;4973646;28;20632;-84
2022/01/25 03:27:27;;;;;;;24.20;10.03;;;3.40;1.00;;;;;;4973476;28;20672;-84
2022/01/25 03:29:54;;;;;;;29.50;10.53;;;3.40;1.00;;;;;;4973967;28;20199;-84
2022/01/25 03:32:21;;;;;;;29.90;9.97;;;3.50;1.00;;;;;;4973637;28;20710;-84
2022/01/25 03:34:48;;;;;;;30.53;11.67;;;3.40;1.00;;;;;;4973976;28;20194;-84
2022/01/25 03:37:15;;;;;;;45.57;20.13;;;3.50;1.00;;;;;;4973612;28;20339;-85
2022/01/25 03:39:42;;;;;;;36.77;15.50;;;3.50;1.00;;;;;;4973692;28;20723;-84
2022/01/25 03:42:11;;;;;;;26.73;11.07;;;3.50;1.00;;;;;;4973414;28;20606;-84
2022/01/25 03:44:42;;;;;;;26.77;10.97;;;3.50;1.00;;;;;;4973358;28;20206;-85
2022/01/25 03:47:13;;;;;;;27.00;10.67;;;3.50;1.00;;;;;;4973344;28;20629;-84
2022/01/25 03:49:50;;;;;;;34.73;10.93;;;3.50;1.00;;;;;;4973672;28;20270;-84
2022/01/25 03:52:23;;;;;;;31.37;11.20;;;3.50;1.00;;;;;;4973830;28;20211;-84
2022/01/25 03:54:50;;;;;;;26.70;10.70;;;3.50;1.00;;;;;;4973730;28;20186;-84
2022/01/25 03:57:19;;;;;;;28.57;11.87;;;3.50;1.00;;;;;;4973449;28;20196;-84
2022/01/25 03:59:47;;;;;;;29.03;10.77;;;3.50;1.00;;;;;;4973807;28;20195;-84
2022/01/25 04:02:14;;;;;;;27.47;10.60;;;3.50;1.00;;;;;;4973789;28;20272;-84
2022/01/25 04:04:41;;;;;;;29.93;10.43;;;3.50;1.00;;;;;;4973630;28;20202;-84
2022/01/25 04:07:11;;;;;;;38.63;15.60;;;3.50;1.00;;;;;;4973256;28;20249;-84
2022/01/25 04:09:39;;;;;;;36.03;15.30;;;3.50;1.00;;;;;;4977367;28;20203;-85
2022/01/25 04:12:08;;;;;;;29.17;11.93;;;3.50;1.00;;;;;;4977332;28;20216;-84
2022/01/25 04:14:36;;;;;;;33.00;12.13;;;3.50;1.00;;;;;;4977197;28;20250;-85
2022/01/25 04:17:06;;;;;;;40.03;13.43;;;3.50;1.00;;;;;;4977380;28;20203;-85
2022/01/25 04:19:38;;;;;;;31.70;10.70;;;3.50;1.00;;;;;;4977006;28;20659;-85
2022/01/25 04:25:13;;;;;;;26.83;11.23;;;3.50;1.00;;;;;;4977156;28;20231;-84
2022/01/25 04:27:41;;;;;;;29.73;11.63;;;3.50;1.00;;;;;;4977175;28;20187;-85
2022/01/25 04:30:10;;;;;;;29.90;11.23;;;3.50;1.00;;;;;;4976898;28;20277;-84
2022/01/25 04:32:45;;;;;;;28.73;10.70;;;3.50;1.00;;;;;;4976549;28;20632;-84
2022/01/25 04:35:28;;;;;;;26.47;11.30;;;3.50;1.00;;;;;;4976806;28;20183;-84
2022/01/25 04:49:06;;;;;;;32.70;13.03;;;3.50;1.00;;;;;;4976610;28;20266;-84
2022/01/25 04:51:45;;;;;;;28.13;11.57;;;3.50;1.00;;;;;;4976575;28;20243;-84
2022/01/25 04:54:20;;;;;;;27.37;11.50;;;3.50;1.00;;;;;;4976548;28;20187;-85
2022/01/25 04:56:55;;;;;;;28.17;11.93;;;3.50;1.00;;;;;;4976726;28;20200;-84
2022/01/25 04:59:28;;;;;;;32.37;11.63;;;3.50;1.00;;;;;;4976893;28;20206;-84
2022/01/25 05:02:02;;;;;;;28.23;10.97;;;3.60;1.00;;;;;;4976146;28;20184;-84
2022/01/25 05:04:33;;;;;;;27.27;10.67;;;3.60;1.00;;;;;;4976045;28;20270;-84
2022/01/25 05:07:18;;;;;;;27.27;10.73;;;3.50;1.00;;;;;;4976045;28;20189;-84
2022/01/25 05:09:46;;;;;;;27.50;10.87;;;3.50;1.00;;;;;;4976072;28;20274;-84
2022/01/25 05:12:14;;;;;;;27.13;10.67;;;3.50;1.00;;;;;;4975777;28;20274;-84
2022/01/25 05:14:56;;;;;;;30.43;11.33;;;3.60;1.00;;;;;;4976202;28;20221;-84
2022/01/25 05:17:34;;;;;;;29.90;11.07;;;3.50;1.00;;;;;;4976335;28;20187;-84
2022/01/25 05:22:42;;;;;;;62.73;26.37;;;3.50;1.00;;;;;;4975805;28;20187;-84
2022/01/25 05:25:09;;;;;;;60.40;25.20;;;3.50;1.00;;;;;;4975716;28;20543;-84
2022/01/25 05:27:36;;;;;;;58.57;24.93;;;3.50;1.00;;;;;;4976141;28;20246;-84
2022/01/25 05:30:07;;;;;;;106.10;38.47;;;3.50;1.00;;;;;;4975533;28;20711;-84
2022/01/25 05:32:35;;;;;;;71.73;26.40;;;3.50;1.00;;;;;;4975751;28;20227;-84
2022/01/25 05:35:03;;;;;;;130.27;45.13;;;3.50;1.00;;;;;;4975873;28;20595;-84
2022/01/25 05:37:32;;;;;;;69.90;26.53;;;3.50;1.00;;;;;;4975496;28;20730;-84
2022/01/25 05:40:01;;;;;;;60.80;25.37;;;3.50;1.00;;;;;;4975479;28;20694;-84
2022/01/25 05:45:19;;;;;;;80.13;29.67;;;3.50;1.00;;;;;;4973736;28;20621;-84
2022/01/25 05:47:48;;;;;;;83.27;32.83;;;3.50;1.00;;;;;;4975715;28;20196;-84
2022/01/25 05:50:15;;;;;;;38.00;15.07;;;3.50;1.00;;;;;;4975259;28;20252;-84
2022/01/25 05:52:42;;;;;;;60.30;24.90;;;3.50;1.00;;;;;;4975597;28;20213;-84
2022/01/25 05:55:10;;;;;;;45.63;18.40;;;3.50;1.00;;;;;;4975520;28;20191;-84
2022/01/25 05:57:37;;;;;;;66.63;31.30;;;3.50;1.00;;;;;;4975519;28;20195;-84
2022/01/25 06:00:07;;;;;;;41.40;17.40;;;3.50;1.00;;;;;;4975402;28;20250;-84
2022/01/25 06:02:35;;;;;;;47.07;18.70;;;3.50;1.00;;;;;;4974700;28;20282;-84
2022/01/25 06:05:04;;;;;;;51.63;20.50;;;3.50;1.00;;;;;;4975384;28;20199;-84
2022/01/25 06:07:31;;;;;;;44.40;18.77;;;3.50;1.00;;;;;;4975356;28;20203;-84
2022/01/25 06:09:58;;;;;;;43.47;20.40;;;3.50;1.00;;;;;;4975006;28;20254;-84
2022/01/25 06:12:25;;;;;;;35.10;16.47;;;3.50;1.00;;;;;;4975263;28;20277;-84
2022/01/25 06:14:52;;;;;;;35.77;14.87;;;3.50;1.00;;;;;;4974810;28;20725;-84
2022/01/25 06:17:19;;;;;;;38.90;15.47;;;3.50;1.00;;;;;;4974678;28;20724;-84
2022/01/25 06:19:46;;;;;;;51.23;19.70;;;3.50;1.00;;;;;;4975006;28;20257;-84
2022/01/25 06:22:15;;;;;;;58.53;22.60;;;3.50;1.00;;;;;;4974884;28;20250;-84
2022/01/25 06:24:43;;;;;;;50.37;17.97;;;3.50;1.00;;;;;;4974649;28;20711;-84
2022/01/25 06:27:10;;;;;;;52.43;21.00;;;3.50;1.00;;;;;;4974904;28;20249;-84
2022/01/25 06:29:37;;;;;;;45.97;19.27;;;3.50;1.00;;;;;;4974945;28;20203;-84
2022/01/25 06:32:04;;;;;;;46.30;17.73;;;3.50;1.00;;;;;;4974612;28;20226;-84
2022/01/25 06:34:31;;;;;;;43.00;15.47;;;3.50;1.00;;;;;;4974399;28;20530;-85
2022/01/25 06:36:58;;;;;;;45.20;17.07;;;3.50;1.00;;;;;;4975017;28;20246;-84
2022/01/25 06:39:27;;;;;;;37.07;14.50;;;3.50;1.00;;;;;;4974370;28;20207;-84
2022/01/25 06:41:54;;;;;;;33.87;12.90;;;3.50;1.00;;;;;;4973936;28;20266;-84
2022/01/25 06:44:21;;;;;;;31.63;12.13;;;3.50;1.00;;;;;;4973872;28;20265;-84
2022/01/25 06:46:48;;;;;;;36.23;12.63;;;3.50;1.00;;;;;;4974602;28;20207;-83
2022/01/25 06:49:16;;;;;;;33.50;12.90;;;3.50;1.00;;;;;;4974353;28;20200;-84
2022/01/25 06:51:44;;;;;;;31.43;11.40;;;3.50;1.00;;;;;;4974517;28;20226;-84
2022/01/25 06:54:11;;;;;;;33.40;11.47;;;3.50;1.00;;;;;;4973950;28;20551;-85
2022/01/25 06:56:39;;;;;;;33.93;11.57;;;3.50;1.00;;;;;;4974366;28;20199;-84
2022/01/25 06:59:06;;;;;;;32.77;12.30;;;3.50;1.00;;;;;;4974533;28;20195;-85
2022/01/25 07:01:33;;;;;;;36.10;12.57;;;3.50;1.00;;;;;;4974077;28;20205;-85
2022/01/25 07:04:00;;;;;;;35.00;12.47;;;3.50;1.00;;;;;;4974190;28;20191;-85
2022/01/25 07:06:28;;;;;;;31.43;13.07;;;3.50;1.00;;;;;;4974281;28;20195;-85
2022/01/25 07:08:55;;;;;;;33.37;12.53;;;3.50;1.00;;;;;;4974857;28;20588;-83
2022/01/25 07:11:23;;;;;;;34.13;13.17;;;3.50;1.00;;;;;;4985223;28;20203;-82
2022/01/25 07:13:51;;;;;;;39.03;15.57;;;3.50;1.00;;;;;;4993145;28;20222;-83
2022/01/25 07:16:18;;;;;;;42.60;16.60;;;3.50;1.00;;;;;;4986236;28;20261;-82
2022/01/25 07:18:45;;;;;;;38.53;15.27;;;3.60;1.00;;;;;;4993418;28;20229;-82
2022/01/25 07:21:12;;;;;;;31.30;12.50;;;3.60;1.00;;;;;;4992670;28;20265;-82
2022/01/25 07:23:40;;;;;;;26.33;11.27;;;3.60;1.00;;;;;;4992610;28;20284;-84
2022/01/25 07:26:07;;;;;;;28.53;11.50;;;3.60;1.00;;;;;;4992152;28;20202;-84
2022/01/25 07:28:36;;;;;;;30.97;11.00;;;3.60;1.00;;;;;;4992842;28;20222;-84
2022/01/25 07:31:05;;;;;;;28.63;10.80;;;3.60;1.00;;;;;;4993457;28;20200;-83
2022/01/25 07:33:32;;;;;;;31.63;10.70;;;3.60;1.00;;;;;;4994396;28;20264;-84
2022/01/25 07:36:06;;;;;;;30.07;10.60;;;3.60;1.00;;;;;;4998775;28;20660;-85
2022/01/25 07:38:33;;;;;;;33.70;12.47;;;3.60;1.00;;;;;;4997758;28;20222;-86
2022/01/25 07:41:00;;;;;;;33.47;12.50;;;3.60;1.00;;;;;;5000214;28;20195;-83
2022/01/25 07:43:27;;;;;;;36.13;12.33;;;3.60;1.00;;;;;;5000891;28;20194;-85
2022/01/25 07:45:56;;;;;;;33.90;11.57;;;3.70;1.00;;;;;;5001717;28;20204;-84
2022/01/25 07:48:25;;;;;;;32.30;12.07;;;3.70;1.00;;;;;;5001835;28;20601;-85
2022/01/25 07:50:52;;;;;;;28.63;10.60;;;3.70;1.00;;;;;;5004576;28;20206;-84
2022/01/25 07:53:19;;;;;;;35.10;11.70;;;3.70;1.00;;;;;;5001087;28;20210;-84
2022/01/25 07:55:46;;;;;;;29.93;11.00;;;3.80;1.00;;;;;;5001139;28;20192;-87
2022/01/25 07:58:19;;;;;;;31.50;11.50;;;3.80;1.00;;;;;;5003840;28;20185;-86
2022/01/25 08:00:57;;;;;;;31.37;11.43;;;3.80;1.00;;;;;;5000771;28;20178;-85
2022/01/25 08:03:26;;;;;;;30.57;12.47;;;3.80;1.00;;;;;;4998558;28;20177;-85
2022/01/25 08:06:05;;;;;;;26.60;10.07;;;3.80;1.00;;;;;;5009070;28;20226;-85
2022/01/25 08:11:42;;;;;;;27.97;11.30;;;3.80;1.00;;;;;;4956944;28;20202;-86
2022/01/25 08:14:18;;;;;;;30.50;12.07;;;3.80;1.00;;;;;;5011744;28;20235;-85
2022/01/25 08:16:58;;;;;;;29.37;10.33;;;3.90;1.00;;;;;;5011635;28;20219;-82
2022/01/25 08:20:08;;;;;;;28.30;10.77;;;3.90;1.00;;;;;;5007404;28;20217;-80
2022/01/25 08:22:41;;;;;;;27.13;10.43;;;3.90;1.00;;;;;;5012449;28;20191;-85
2022/01/25 08:25:09;;;;;;;27.87;11.03;;;3.90;1.00;;;;;;5008876;28;20657;-82
2022/01/25 08:27:41;;;;;;;27.17;10.73;;;4.00;1.00;;;;;;5001550;28;20198;-85
2022/01/25 08:30:09;;;;;;;27.07;10.93;;;4.00;1.00;;;;;;5000579;28;20183;-84
2022/01/25 08:32:39;;;;;;;26.83;11.37;;;4.00;1.00;;;;;;5001036;28;20238;-85
2022/01/25 08:35:08;;;;;;;29.47;11.80;;;4.00;1.00;;;;;;5006190;28;20206;-86
2022/01/25 08:37:47;;;;;;;29.80;11.83;;;4.10;1.00;;;;;;5001681;28;20179;-83
2022/01/25 08:40:18;;;;;;;26.73;11.27;;;4.10;1.00;;;;;;4999251;28;20178;-88
2022/01/25 08:42:45;;;;;;;29.27;12.50;;;4.10;1.00;;;;;;4994383;28;20198;-85
2022/01/25 08:45:13;;;;;;;28.13;12.97;;;4.10;1.00;;;;;;4999600;28;20663;-82
2022/01/25 08:48:04;;;;;;;32.23;13.03;;;4.10;1.00;;;;;;5005955;28;20182;-88
2022/01/25 08:50:33;;;;;;;32.40;12.50;;;4.10;1.00;;;;;;4994299;28;20211;-85
2022/01/25 08:53:10;;;;;;;29.10;11.37;;;4.20;1.00;;;;;;5000981;28;20211;-88
2022/01/25 08:55:45;;;;;;;32.27;13.50;;;4.20;1.00;;;;;;5001365;28;20289;-84
2022/01/25 08:58:22;;;;;;;37.83;16.80;;;4.20;1.00;;;;;;4997115;28;20194;-86
2022/01/25 09:00:50;;;;;;;29.33;13.57;;;4.20;1.00;;;;;;4999143;28;20194;-85
2022/01/25 09:03:18;;;;;;;33.60;13.00;;;4.20;1.00;;;;;;4998299;28;20221;-84
2022/01/25 09:05:50;;;;;;;35.33;14.73;;;4.20;1.00;;;;;;5001502;28;20185;-86
2022/01/25 09:08:21;;;;;;;36.33;14.60;;;4.30;1.00;;;;;;5000106;28;20207;-83
2022/01/25 09:11:01;;;;;;;34.07;13.63;;;4.30;1.00;;;;;;5001408;28;20209;-83
2022/01/25 09:13:29;;;;;;;46.87;14.40;;;4.40;1.00;;;;;;5001837;28;20226;-83
2022/01/25 09:15:57;;;;;;;36.90;13.57;;;4.40;1.00;;;;;;5000572;28;20209;-86
2022/01/25 09:18:36;;;;;;;32.17;13.30;;;4.40;1.00;;;;;;5001098;28;20198;-85
2022/01/25 09:21:05;;;;;;;37.57;15.60;;;4.40;1.00;;;;;;5000579;28;20706;-86
2022/01/25 09:23:39;;;;;;;38.73;15.33;;;4.40;1.00;;;;;;5000897;28;20268;-86
2022/01/25 09:26:33;;;;;;;36.40;13.43;;;4.40;1.00;;;;;;4994210;28;20575;-86
2022/01/25 09:29:07;;;;;;;35.80;15.60;;;4.50;1.00;;;;;;4965732;28;20210;-88
2022/01/25 09:31:44;;;;;;;36.83;15.17;;;4.50;1.00;;;;;;5000682;28;20237;-84
2022/01/25 09:34:12;;;;;;;31.80;13.80;;;4.50;1.00;;;;;;5000759;28;20251;-85
2022/01/25 09:36:41;;;;;;;32.67;13.30;;;4.50;1.00;;;;;;5003357;28;20206;-84
2022/01/25 09:39:12;;;;;;;32.00;13.23;;;4.60;1.00;;;;;;5002680;28;20199;-85
2022/01/25 09:41:39;;;;;;;25.90;12.43;;;4.60;1.00;;;;;;5001101;28;20198;-83
2022/01/25 09:44:07;;;;;;;28.73;11.60;;;4.60;1.00;;;;;;5001121;28;20194;-83
2022/01/25 09:46:40;;;;;;;28.70;12.37;;;4.60;1.00;;;;;;5002146;28;20604;-85
2022/01/25 09:49:08;;;;;;;32.00;13.57;;;4.60;1.00;;;;;;5001301;28;20253;-85
2022/01/25 09:51:44;;;;;;;30.83;12.90;;;4.60;1.00;;;;;;5000439;28;20267;-88
2022/01/25 09:54:12;;;;;;;28.67;12.80;;;4.70;1.00;;;;;;4998766;28;20226;-85
2022/01/25 09:56:39;;;;;;;31.67;13.13;;;4.70;1.00;;;;;;5000866;28;20565;-84
2022/01/25 09:59:59;;;;;;;30.10;13.37;;;4.70;1.00;;;;;;5007865;28;20194;-86
2022/01/25 10:03:30;;;;;;;;;;;;;;;;;;;;;
2022/01/25 10:06:11;;;;;;;26.37;12.30;;;4.70;1.00;;;;;;5006843;28;20194;-87
2022/01/25 10:08:40;;;;;;;29.10;12.40;;;4.80;1.00;;;;;;5005825;28;20199;-85
2022/01/25 10:11:19;;;;;;;31.83;14.20;;;4.80;1.00;;;;;;5001827;28;20345;-86
2022/01/25 10:13:50;;;;;;;24.70;11.43;;;4.80;1.00;;;;;;5000173;28;20210;-88
2022/01/25 10:19:42;;;;;;;27.80;13.30;;;4.80;1.00;;;;;;4993170;28;20240;-87
2022/01/25 10:22:17;;;;;;;25.60;12.07;;;4.80;1.00;;;;;;5009527;28;20195;-86
2022/01/25 10:25:07;;;;;;;24.73;11.47;;;4.80;1.00;;;;;;5016199;28;20201;-90
2022/01/25 10:28:04;;;;;;;23.63;11.10;;;4.80;1.00;;;;;;4993454;28;20210;-86
2022/01/25 10:30:37;;;;;;;26.37;11.93;;;4.70;1.00;;;;;;5000263;28;20199;-83
2022/01/25 10:33:32;;;;;;;29.93;12.33;;;4.70;1.00;;;;;;5002329;28;20234;-83
2022/01/25 10:36:01;;;;;;;30.33;11.77;;;4.70;1.00;;;;;;5002299;28;20193;-85
2022/01/25 10:38:31;;;;;;;26.10;12.27;;;4.70;1.00;;;;;;5000425;28;20205;-82
2022/01/25 10:41:10;;;;;;;24.10;11.17;;;4.70;1.00;;;;;;5001007;28;20203;-82
2022/01/25 10:43:41;;;;;;;26.63;11.60;;;4.70;1.00;;;;;;5003676;28;20204;-85
2022/01/25 10:46:15;;;;;;;27.40;11.47;;;4.70;1.00;;;;;;4999200;28;20636;-87
2022/01/25 10:48:51;;;;;;;28.93;11.97;;;4.80;1.00;;;;;;5003678;28;20195;-84
2022/01/25 10:51:22;;;;;;;30.63;12.83;;;4.80;1.00;;;;;;4998321;28;20257;-86
2022/01/25 10:54:23;;;;;;;27.30;12.03;;;4.70;1.00;;;;;;4999033;28;20238;-85
2022/01/25 10:56:54;;;;;;;30.13;11.77;;;4.70;1.00;;;;;;4940434;29;20706;-82
2022/01/25 10:59:24;;;;;;;28.47;12.53;;;4.70;1.00;;;;;;4999845;28;20230;-87
2022/01/25 11:02:03;;;;;;;29.57;13.10;;;4.70;1.00;;;;;;5006130;28;20174;-83
2022/01/25 11:04:36;;;;;;;27.75;13.05;;;4.70;1.00;;;;;;5003655;28;20205;-85
2022/01/25 11:07:16;;;;;;;25.43;11.10;;;4.70;1.00;;;;;;5001278;28;20189;-84
2022/01/25 11:09:47;;;;;;;26.90;11.63;;;4.70;1.00;;;;;;4983364;28;20231;-87
2022/01/25 11:12:27;;;;;;;24.80;11.60;;;4.80;1.00;;;;;;4993659;28;20198;-82
2022/01/25 11:15:21;;;;;;;21.23;10.70;;;4.70;1.00;;;;;;5006365;28;20206;-88
2022/01/25 11:17:55;;;;;;;25.80;11.70;;;4.80;1.00;;;;;;4997965;28;20217;-86
2022/01/25 11:20:22;;;;;;;27.93;11.97;;;4.70;1.00;;;;;;5004828;28;20179;-83
2022/01/25 11:22:53;;;;;;;26.67;13.13;;;4.80;1.00;;;;;;5005926;28;20218;-87
2022/01/25 11:25:23;;;;;;;28.80;13.97;;;4.80;1.00;;;;;;4996592;28;20552;-84
2022/01/25 11:27:53;;;;;;;26.87;11.63;;;4.80;1.00;;;;;;4997101;28;20586;-85
2022/01/25 11:30:44;;;;;;;23.47;11.90;;;4.80;1.00;;;;;;5004869;28;20714;-87
2022/01/25 11:33:29;;;;;;;22.33;11.73;;;4.80;1.00;;;;;;5005384;28;20264;-87
2022/01/25 11:36:00;;;;;;;22.20;10.70;;;4.80;1.00;;;;;;5003508;28;20257;-88
2022/01/25 11:38:34;;;;;;;24.23;11.50;;;4.90;1.00;;;;;;5003349;28;20195;-87
2022/01/25 11:41:10;;;;;;;22.23;10.93;;;4.90;1.00;;;;;;5002161;28;20205;-86
2022/01/25 11:43:42;;;;;;;25.90;12.23;;;4.90;1.00;;;;;;5001262;28;20191;-86
2022/01/25 11:46:15;;;;;;;24.30;11.33;;;4.90;1.00;;;;;;5004286;28;20223;-86
2022/01/25 11:48:45;;;;;;;29.47;14.50;;;4.90;1.00;;;;;;5004133;28;20191;-85
2022/01/25 11:51:17;;;;;;;25.07;12.87;;;4.90;1.00;;;;;;5005012;28;20194;-85
2022/01/25 11:53:48;;;;;;;25.03;12.30;;;5.00;1.00;;;;;;5002994;28;20199;-87
2022/01/25 11:56:16;;;;;;;24.57;11.83;;;5.00;1.00;;;;;;5001847;28;20195;-86
2022/01/25 12:01:52;;;;;;;39.30;20.97;;;5.10;1.00;;;;;;4948649;28;20224;-82
2022/01/25 12:04:19;;;;;;;26.93;14.37;;;5.20;1.00;;;;;;4980885;28;20184;-84
2022/01/25 12:06:59;;;;;;;26.97;15.43;;;5.30;1.00;;;;;;4980960;28;20262;-84
2022/01/25 12:09:42;;;;;;;23.33;12.87;;;5.30;1.00;;;;;;4981634;28;20203;-85
2022/01/25 12:12:10;;;;;;;21.07;12.47;;;5.30;1.00;;;;;;4977992;28;20192;-84
2022/01/25 12:14:46;;;;;;;24.43;13.80;;;5.40;1.00;;;;;;4982258;28;20247;-86
2022/01/25 12:17:16;;;;;;;33.57;20.93;;;5.40;1.00;;;;;;4985928;28;20214;-87
2022/01/25 12:19:52;;;;;;;47.13;31.97;;;5.50;1.00;;;;;;4997094;28;20203;-82
2022/01/25 12:22:36;;;;;;;39.70;21.03;;;5.50;1.00;;;;;;5000741;28;20250;-85
2022/01/25 12:25:27;;;;;;;23.97;15.43;;;5.60;1.00;;;;;;5007418;28;20195;-88
2022/01/25 12:28:07;;;;;;;39.10;23.10;;;5.60;1.00;;;;;;5016236;28;20205;-86
2022/01/25 12:30:46;;;;;;;28.90;16.10;;;5.70;1.00;;;;;;5004801;28;20188;-85
2022/01/25 12:33:27;;;;;;;41.90;25.20;;;5.60;1.00;;;;;;5003629;28;20249;-83
2022/01/25 12:35:59;;;;;;;36.17;20.43;;;5.60;1.00;;;;;;5002642;28;20237;-84
2022/01/25 12:38:41;;;;;;;32.03;19.23;;;5.60;1.00;;;;;;5003159;28;20195;-85
2022/01/25 12:41:10;;;;;;;34.03;21.40;;;5.60;1.00;;;;;;5003447;28;20201;-86
2022/01/25 12:43:48;;;;;;;23.07;14.23;;;5.60;1.00;;;;;;5002286;28;20291;-87
2022/01/25 12:46:21;;;;;;;21.93;12.70;;;5.60;1.00;;;;;;5003718;28;20820;-88
2022/01/25 12:49:17;;;;;;;27.77;18.90;;;5.60;1.00;;;;;;4996943;28;20182;-85
2022/01/25 12:51:51;;;;;;;29.10;20.50;;;5.60;1.00;;;;;;5005161;28;20655;-84
2022/01/25 12:54:37;;;;;;;29.53;18.60;;;5.60;1.00;;;;;;5004443;28;20218;-83
2022/01/25 12:57:09;;;;;;;85.00;43.60;;;5.60;1.00;;;;;;5002696;28;20197;-84
2022/01/25 12:59:37;;;;;;;929.53;399.00;;;5.50;1.00;;;;;;5002341;28;20199;-84
2022/01/25 13:02:06;;;;;;;23.03;13.20;;;5.50;1.00;;;;;;5002487;28;20674;-84
2022/01/25 13:04:44;;;;;;;145.43;60.67;;;5.50;1.00;;;;;;5003898;28;20203;-84
2022/01/25 13:07:20;;;;;;;93.87;48.93;;;5.40;1.00;;;;;;5004744;28;20226;-82
2022/01/25 13:09:48;;;;;;;25.13;16.47;;;5.40;1.00;;;;;;5005229;28;20202;-81
2022/01/25 13:12:23;;;;;;;120.50;58.13;;;5.40;1.00;;;;;;5006335;28;20191;-84
2022/01/25 13:15:02;;;;;;;75.30;41.57;;;5.40;1.00;;;;;;5006432;28;20741;-87
2022/01/25 13:17:37;;;;;;;32.77;20.57;;;5.40;1.00;;;;;;5003742;28;20190;-87
2022/01/25 13:20:09;;;;;;;46.03;29.63;;;5.50;1.00;;;;;;5004496;28;20166;-84
2022/01/25 13:22:42;;;;;;;37.77;24.37;;;5.40;1.00;;;;;;5003939;28;20155;-85
2022/01/25 13:25:15;;;;;;;48.03;31.00;;;5.40;1.00;;;;;;5002275;28;20289;-86
2022/01/25 13:27:50;;;;;;;30.43;18.47;;;5.40;1.00;;;;;;5003247;28;21468;-87
2022/01/25 13:33:18;;;;;;;24.00;15.43;;;5.30;1.00;;;;;;5001970;28;20265;-83
2022/01/25 13:35:53;;;;;;;25.27;16.23;;;5.30;1.00;;;;;;5003714;28;20205;-84
2022/01/25 13:38:21;;;;;;;26.83;16.93;;;5.30;1.00;;;;;;5005312;28;20200;-89
2022/01/25 13:41:00;;;;;;;38.63;25.77;;;5.30;1.00;;;;;;5003947;28;20210;-90
2022/01/25 13:46:26;;;;;;;23.47;15.13;;;5.30;1.00;;;;;;5003173;28;20240;-86
2022/01/25 13:49:07;;;;;;;35.90;19.97;;;5.30;1.00;;;;;;5003933;28;20199;-92
2022/01/25 13:51:42;;;;;;;40.10;20.27;;;5.30;1.00;;;;;;5003003;28;20218;-88
2022/01/25 13:54:14;;;;;;;48.37;26.23;;;5.30;1.00;;;;;;5003353;28;20213;-86
2022/01/25 13:56:50;;;;;;;35.27;17.43;;;5.30;1.00;;;;;;5002610;28;20191;-84
2022/01/25 13:59:17;;;;;;;21.73;13.90;;;5.30;1.00;;;;;;5004124;28;20200;-84
2022/01/25 14:02:02;;;;;;;37.27;15.83;;;5.30;1.00;;;;;;5004330;28;20632;-87
2022/01/25 14:04:38;;;;;;;39.47;18.60;;;5.30;1.00;;;;;;5003631;28;20639;-84
2022/01/25 14:07:05;;;;;;;38.93;22.03;;;5.30;1.00;;;;;;5004622;28;20183;-84
2022/01/25 14:09:35;;;;;;;40.17;19.97;;;5.30;1.00;;;;;;5004592;28;20190;-85
2022/01/25 14:23:53;;;;;;;38.90;24.10;;;5.30;1.00;;;;;;4987580;28;20258;-87
2022/01/25 14:26:21;;;;;;;43.13;23.53;;;5.20;1.00;;;;;;5003779;28;20603;-83
2022/01/25 14:29:05;;;;;;;43.47;22.53;;;5.20;1.00;;;;;;5001463;28;20195;-86
2022/01/25 14:31:46;;;;;;;42.33;23.47;;;5.20;1.00;;;;;;5003336;28;20583;-81
2022/01/25 14:34:18;;;;;;;62.80;32.63;;;5.20;1.00;;;;;;4982779;28;20195;-87
2022/01/25 14:36:48;;;;;;;58.47;29.70;;;5.20;1.00;;;;;;4995796;28;20217;-86
2022/01/25 14:39:18;;;;;;;36.20;21.17;;;5.20;1.00;;;;;;4998843;28;20845;-85
2022/01/25 14:41:49;;;;;;;39.40;21.53;;;5.20;1.00;;;;;;5002868;28;20199;-85
2022/01/25 14:44:28;;;;;;;40.03;22.13;;;5.20;1.00;;;;;;5001924;28;20207;-88
2022/01/25 14:46:55;;;;;;;70.90;38.47;;;5.10;1.00;;;;;;5000771;28;20198;-85